Lac Ste. Marie, Canada
Current Conditions -  °F | °C
As of 1:00 PM on Saturday 20 Dec 2014 (Local Time) from CYND Reporting Station
Few Clouds Few Clouds  
Wind Chill: 10°   Ceiling: Unl
Heat Index: 19°   Visibility: 15mi
Dew Point: 12°   Wind: 7mph
Humidity: 74%   Direction: 90°E
Pressure: 30.32"   Gusts: NA
Location:  45.97°N, 75.93°W
Report Text: CYND 201800Z 09006KT 15SM FEW220 M07/M11 A3032 RMK CI1 SLP273
Loading
Personal Weather Stations






























Interactive Weather Map New forecast layout! Learn more

10-Day Weather Forecast

Advertisements
Track Severe Weather on mobile